createdAt,value
2019-05-30T00:01:44.207Z,51.33
2019-05-30T00:04:14.267Z,51.12
2019-05-30T00:06:44.223Z,51.25
2019-05-30T00:09:14.257Z,51.39
2019-05-30T00:11:44.398Z,51.74
2019-05-30T00:14:14.274Z,51.81
2019-05-30T00:16:44.226Z,51.48
2019-05-30T00:19:14.332Z,51.90
2019-05-30T00:21:44.238Z,52.13
2019-05-30T00:24:14.274Z,52.70
2019-05-30T00:26:44.406Z,52.44
2019-05-30T00:29:14.319Z,52.31
2019-05-30T00:31:44.354Z,52.57
2019-05-30T00:34:14.311Z,52.63
2019-05-30T00:36:44.425Z,52.85
2019-05-30T00:39:14.313Z,52.95
2019-05-30T00:41:44.599Z,52.83
2019-05-30T00:44:14.339Z,52.91
2019-05-30T00:46:44.686Z,52.80
2019-05-30T00:49:14.325Z,53.17
2019-05-30T00:51:44.289Z,53.33
2019-05-30T00:54:14.303Z,53.40
2019-05-30T00:56:44.301Z,53.31
2019-05-30T00:59:14.353Z,53.71
2019-05-30T01:01:44.397Z,53.76
2019-05-30T01:04:14.559Z,53.98
2019-05-30T01:06:44.306Z,53.97
2019-05-30T01:09:14.292Z,54.41
2019-05-30T01:11:44.405Z,54.11
2019-05-30T01:14:14.334Z,54.50
2019-05-30T01:16:44.403Z,54.27
2019-05-30T01:19:14.319Z,54.60
2019-05-30T01:21:44.293Z,54.60
2019-05-30T01:24:14.320Z,54.67
2019-05-30T01:26:44.579Z,54.88
2019-05-30T01:29:14.347Z,54.43
2019-05-30T01:31:44.296Z,54.85
2019-05-30T01:34:14.424Z,54.79
2019-05-30T01:36:44.339Z,54.95
2019-05-30T01:39:14.407Z,54.78
2019-05-30T01:41:44.503Z,54.72
2019-05-30T01:44:14.415Z,55.06
2019-05-30T01:46:44.414Z,54.91
2019-05-30T01:49:14.378Z,54.74
2019-05-30T01:51:44.722Z,54.69
2019-05-30T01:54:14.369Z,54.69
2019-05-30T01:56:44.448Z,54.66
2019-05-30T01:59:14.407Z,54.72
2019-05-30T02:01:44.376Z,54.82
2019-05-30T02:04:14.581Z,54.80
2019-05-30T02:06:44.576Z,54.79
2019-05-30T02:09:14.395Z,54.63
2019-05-30T02:11:44.514Z,54.73
2019-05-30T02:14:14.451Z,54.61
2019-05-30T02:16:44.294Z,54.64
2019-05-30T02:19:14.393Z,54.57
2019-05-30T02:21:44.385Z,54.81
2019-05-30T02:24:14.422Z,54.89
2019-05-30T02:26:44.518Z,54.89
2019-05-30T02:29:14.437Z,55.02
2019-05-30T02:31:44.460Z,55.00
2019-05-30T02:34:14.449Z,55.01
2019-05-30T02:36:44.420Z,55.19
2019-05-30T02:39:14.446Z,55.20
2019-05-30T02:41:44.900Z,55.16
2019-05-30T02:44:14.491Z,55.14
2019-05-30T02:46:44.516Z,55.31
2019-05-30T02:49:14.612Z,55.15
2019-05-30T02:51:44.508Z,55.69
2019-05-30T02:54:14.818Z,55.46
2019-05-30T02:56:44.858Z,55.52
2019-05-30T02:59:14.580Z,55.45
2019-05-30T03:01:59.833Z,55.30
2019-05-30T03:04:15.767Z,55.36
2019-05-30T03:06:45.168Z,55.26
2019-05-30T03:09:14.553Z,55.42
2019-05-30T03:11:44.750Z,55.42
2019-05-30T03:14:19.160Z,55.36
2019-05-30T03:16:45.919Z,55.11
2019-05-30T03:19:15.667Z,54.77
2019-05-30T03:21:45.132Z,54.30
2019-05-30T03:24:14.582Z,54.25
2019-05-30T03:26:44.624Z,54.17
2019-05-30T03:29:14.672Z,53.96
2019-05-30T03:31:45.906Z,53.50
2019-05-30T03:34:26.080Z,53.30
2019-05-30T03:36:46.647Z,53.39
2019-05-30T03:39:16.011Z,53.16
2019-05-30T03:41:45.705Z,53.03
2019-05-30T03:44:15.792Z,52.61
2019-05-30T03:46:49.827Z,52.57
2019-05-30T03:49:22.551Z,52.25
2019-05-30T03:51:53.563Z,52.13
2019-05-30T03:54:25.462Z,52.10
2019-05-30T03:57:01.124Z,51.92
2019-05-30T03:59:34.848Z,52.49
2019-05-30T04:02:15.777Z,52.25
2019-05-30T04:04:53.531Z,52.20
2019-05-30T04:07:26.252Z,52.35
2019-05-30T04:09:58.034Z,52.40
2019-05-30T04:12:33.802Z,52.38
2019-05-30T04:15:10.046Z,52.53
2019-05-30T04:17:39.549Z,52.47
2019-05-30T04:20:09.843Z,52.47
2019-05-30T04:22:40.274Z,52.29
2019-05-30T04:25:10.141Z,52.50
2019-05-30T04:27:39.973Z,52.65
2019-05-30T04:30:10.031Z,52.80
2019-05-30T04:32:39.557Z,52.57
2019-05-30T04:35:10.257Z,52.17
2019-05-30T04:37:39.808Z,52.11
2019-05-30T04:40:11.400Z,52.20
2019-05-30T04:42:41.398Z,52.19
2019-05-30T04:45:11.833Z,52.30
2019-05-30T04:47:41.621Z,52.26
2019-05-30T04:50:14.309Z,52.19
2019-05-30T04:52:44.759Z,52.27
2019-05-30T04:55:17.505Z,52.16
2019-05-30T04:57:46.527Z,52.24
2019-05-30T05:00:17.110Z,52.08
2019-05-30T05:02:46.511Z,52.22
2019-05-30T05:05:22.391Z,52.24
2019-05-30T05:07:47.105Z,52.55
2019-05-30T05:10:18.096Z,52.59
2019-05-30T05:12:48.023Z,52.48
2019-05-30T05:15:18.668Z,52.35
2019-05-30T05:17:48.274Z,52.60
2019-05-30T05:20:19.342Z,52.33
2019-05-30T05:22:48.857Z,52.62
2019-05-30T05:25:19.499Z,52.73
2019-05-30T05:27:49.374Z,52.54
2019-05-30T05:30:20.198Z,52.74
2019-05-30T05:32:49.715Z,52.54
2019-05-30T05:35:20.771Z,52.83
2019-05-30T05:37:50.366Z,52.51
2019-05-30T05:40:22.278Z,52.60
2019-05-30T05:42:51.837Z,52.47
2019-05-30T05:45:22.785Z,52.18
2019-05-30T05:47:52.970Z,52.01
2019-05-30T05:50:22.592Z,52.04
2019-05-30T05:52:52.020Z,51.78
2019-05-30T05:55:21.521Z,51.64
2019-05-30T05:57:50.892Z,51.65
2019-05-30T06:00:21.283Z,51.91
2019-05-30T06:02:51.221Z,51.83
2019-05-30T06:05:20.616Z,51.43
2019-05-30T06:07:50.042Z,51.00
2019-05-30T06:10:19.772Z,51.16
2019-05-30T06:12:49.137Z,51.04
2019-05-30T06:15:18.793Z,50.81
2019-05-30T06:17:49.580Z,51.04
2019-05-30T06:20:19.379Z,50.73
2019-05-30T06:22:48.790Z,50.71
2019-05-30T06:25:21.107Z,50.50
2019-05-30T06:27:49.673Z,50.79
2019-05-30T06:30:20.334Z,50.33
2019-05-30T06:32:50.386Z,50.64
2019-05-30T06:35:21.408Z,50.45
2019-05-30T06:37:51.182Z,50.38
2019-05-30T06:40:21.429Z,50.10
2019-05-30T06:42:51.051Z,50.12
2019-05-30T06:45:21.833Z,50.14
2019-05-30T06:47:52.466Z,50.11
2019-05-30T06:50:22.569Z,50.32
2019-05-30T06:52:52.044Z,50.32
2019-05-30T06:55:23.099Z,50.33
2019-05-30T06:57:52.651Z,50.43
2019-05-30T07:00:23.765Z,50.53
2019-05-30T07:02:53.401Z,50.60
2019-05-30T07:05:24.303Z,50.40
2019-05-30T07:07:54.454Z,50.56
2019-05-30T07:10:24.879Z,50.43
2019-05-30T07:12:54.379Z,50.67
2019-05-30T07:15:25.021Z,50.74
2019-05-30T07:17:54.887Z,50.58
2019-05-30T07:20:25.518Z,50.57
2019-05-30T07:22:55.093Z,50.60
2019-05-30T07:25:25.710Z,50.61
2019-05-30T07:27:55.250Z,50.46
2019-05-30T07:30:25.862Z,50.38
2019-05-30T07:32:55.583Z,50.29
2019-05-30T07:35:25.939Z,50.13
2019-05-30T07:37:55.779Z,50.18
2019-05-30T07:40:26.566Z,50.24
2019-05-30T07:42:56.039Z,50.02
2019-05-30T07:45:26.785Z,49.94
2019-05-30T07:47:56.523Z,49.63
2019-05-30T07:50:26.276Z,49.14
2019-05-30T07:52:55.823Z,49.26
2019-05-30T07:55:25.455Z,48.78
2019-05-30T07:57:56.068Z,48.55
2019-05-30T08:00:27.287Z,48.67
2019-05-30T08:02:57.069Z,48.55
2019-05-30T08:05:26.759Z,48.15
2019-05-30T08:07:56.323Z,48.36
2019-05-30T08:10:26.188Z,48.94
2019-05-30T08:12:55.584Z,48.92
2019-05-30T08:15:25.197Z,48.45
2019-05-30T08:17:54.719Z,48.16
2019-05-30T08:20:24.179Z,47.90
2019-05-30T08:22:53.623Z,47.83
2019-05-30T08:25:23.190Z,48.49
2019-05-30T08:27:52.648Z,49.48
2019-05-30T08:30:22.708Z,50.74
2019-05-30T08:32:52.240Z,50.83
2019-05-30T08:35:21.777Z,50.79
2019-05-30T08:37:51.249Z,51.61
2019-05-30T08:40:21.142Z,52.15
2019-05-30T08:42:50.637Z,53.65
2019-05-30T08:45:20.279Z,53.64
2019-05-30T08:47:49.797Z,54.10
2019-05-30T08:50:19.364Z,54.54
2019-05-30T08:52:48.805Z,54.92
2019-05-30T08:55:18.610Z,55.42
2019-05-30T08:57:48.016Z,55.39
2019-05-30T09:00:17.822Z,55.40
2019-05-30T09:02:47.357Z,55.84
2019-05-30T09:05:16.961Z,56.28
2019-05-30T09:07:46.440Z,57.63
2019-05-30T09:10:16.162Z,58.47
2019-05-30T09:12:49.341Z,59.03
2019-05-30T09:15:21.864Z,59.54
2019-05-30T09:17:50.413Z,61.09
2019-05-30T09:20:20.898Z,61.12
2019-05-30T09:22:50.363Z,62.50
2019-05-30T09:25:21.631Z,62.98
2019-05-30T09:27:51.253Z,64.25
2019-05-30T09:30:20.989Z,64.54
2019-05-30T09:32:50.574Z,65.18
2019-05-30T09:35:22.371Z,65.64
2019-05-30T09:37:51.799Z,66.11
2019-05-30T09:40:21.613Z,66.27
2019-05-30T09:42:51.031Z,66.54
2019-05-30T09:45:21.070Z,66.04
2019-05-30T09:47:51.404Z,66.92
2019-05-30T09:50:21.779Z,66.89
2019-05-30T09:52:51.480Z,66.58
2019-05-30T09:55:21.983Z,66.85
2019-05-30T09:57:51.808Z,66.95
2019-05-30T10:00:22.096Z,66.76
2019-05-30T10:02:52.526Z,66.63
2019-05-30T10:05:24.592Z,65.63
2019-05-30T10:07:54.025Z,64.99
2019-05-30T10:10:23.931Z,65.27
2019-05-30T10:12:53.369Z,64.55
2019-05-30T10:15:23.188Z,64.72
2019-05-30T10:17:54.519Z,64.29
2019-05-30T10:20:24.646Z,64.23
2019-05-30T10:22:54.122Z,64.98
2019-05-30T10:25:23.855Z,64.98
2019-05-30T10:27:54.788Z,65.31
2019-05-30T10:30:24.951Z,65.26
2019-05-30T10:32:55.732Z,65.17
2019-05-30T10:35:25.563Z,64.88
2019-05-30T10:37:55.052Z,65.51
2019-05-30T10:40:24.925Z,65.47
2019-05-30T10:42:55.095Z,65.41
2019-05-30T10:45:25.310Z,65.33
2019-05-30T10:47:54.806Z,65.39
2019-05-30T10:50:24.553Z,65.19
2019-05-30T10:52:53.981Z,64.94
2019-05-30T10:55:25.076Z,64.68
2019-05-30T10:57:58.148Z,63.74
2019-05-30T11:00:49.135Z,64.22
2019-05-30T11:03:21.709Z,63.97
2019-05-30T11:06:14.840Z,63.68
2019-05-30T11:08:46.392Z,63.04
2019-05-30T11:11:29.124Z,62.88
2019-05-30T11:13:58.523Z,62.58
2019-05-30T11:16:28.022Z,62.05
2019-05-30T11:18:57.958Z,61.85
2019-05-30T11:21:27.776Z,61.92
2019-05-30T11:23:58.316Z,62.09
2019-05-30T11:26:27.863Z,61.63
2019-05-30T11:28:57.279Z,61.00
2019-05-30T11:31:26.652Z,60.71
2019-05-30T11:33:57.158Z,60.07
2019-05-30T11:36:26.646Z,59.65
2019-05-30T11:38:57.327Z,59.34
2019-05-30T11:41:27.085Z,59.39
2019-05-30T11:43:57.797Z,59.03
2019-05-30T11:46:27.335Z,58.76
2019-05-30T11:48:57.891Z,57.74
2019-05-30T11:51:27.395Z,58.27
2019-05-30T11:53:57.994Z,57.94
2019-05-30T11:56:27.825Z,58.24
2019-05-30T11:58:58.076Z,58.54
2019-05-30T12:01:27.670Z,58.46
2019-05-30T12:03:58.650Z,58.03
2019-05-30T12:06:28.243Z,57.91
2019-05-30T12:08:58.901Z,58.68
2019-05-30T12:11:28.651Z,58.68
2019-05-30T12:13:59.406Z,58.61
2019-05-30T12:16:29.176Z,58.31
2019-05-30T12:18:59.738Z,57.73
2019-05-30T12:21:30.025Z,57.34
2019-05-30T12:24:00.295Z,57.47
2019-05-30T12:26:33.663Z,57.64
2019-05-30T12:29:02.481Z,57.94
2019-05-30T12:31:32.528Z,58.60
2019-05-30T12:34:02.831Z,58.63
2019-05-30T12:36:32.504Z,58.36
2019-05-30T12:39:02.768Z,58.41
2019-05-30T12:41:32.771Z,60.01
2019-05-30T12:44:03.377Z,61.06
2019-05-30T12:46:32.849Z,61.91
2019-05-30T12:49:03.691Z,62.73
2019-05-30T12:51:33.352Z,63.40
2019-05-30T12:54:02.844Z,63.35
2019-05-30T12:56:32.741Z,63.42
2019-05-30T12:59:03.045Z,63.33
2019-05-30T13:01:32.607Z,64.36
2019-05-30T13:04:03.517Z,65.86
2019-05-30T13:06:32.864Z,66.91
2019-05-30T13:09:03.370Z,68.05
2019-05-30T13:11:33.088Z,67.99
2019-05-30T13:14:02.785Z,68.88
2019-05-30T13:16:32.652Z,69.50
2019-05-30T13:19:02.628Z,70.38
2019-05-30T13:21:32.548Z,70.76
2019-05-30T13:24:03.768Z,70.98
2019-05-30T13:26:35.919Z,70.75
2019-05-30T13:29:06.457Z,71.02
2019-05-30T13:31:36.322Z,71.08
2019-05-30T13:34:07.036Z,71.14
2019-05-30T13:36:36.595Z,70.56
2019-05-30T13:39:07.458Z,71.31
2019-05-30T13:41:37.134Z,70.71
2019-05-30T13:44:08.465Z,71.05
2019-05-30T13:46:37.746Z,71.47
2019-05-30T13:49:07.291Z,70.71
2019-05-30T13:51:36.706Z,70.01
2019-05-30T13:54:07.184Z,69.99
2019-05-30T13:56:36.740Z,69.78
2019-05-30T13:59:06.167Z,69.94
2019-05-30T14:01:35.573Z,69.17
2019-05-30T14:04:06.205Z,68.82
2019-05-30T14:06:35.823Z,68.74
2019-05-30T14:09:08.574Z,68.44
2019-05-30T14:11:39.170Z,68.68
2019-05-30T14:14:08.957Z,68.17
2019-05-30T14:16:38.473Z,68.84
2019-05-30T14:19:11.108Z,68.19
2019-05-30T14:21:39.514Z,68.67
2019-05-30T14:24:09.449Z,68.59
2019-05-30T14:26:39.081Z,68.50
2019-05-30T14:29:09.767Z,68.47
2019-05-30T14:31:39.364Z,69.50
2019-05-30T14:34:10.137Z,69.50
2019-05-30T14:36:40.002Z,68.88
2019-05-30T14:39:09.466Z,68.83
2019-05-30T14:41:38.895Z,68.73
2019-05-30T14:44:08.280Z,68.02
2019-05-30T14:46:37.697Z,67.97
2019-05-30T14:49:08.278Z,67.51
2019-05-30T14:51:38.025Z,67.94
2019-05-30T14:54:07.431Z,66.87
2019-05-30T14:56:37.168Z,66.97
2019-05-30T14:59:06.969Z,66.69
2019-05-30T15:01:36.379Z,66.81
2019-05-30T15:04:07.070Z,66.62
2019-05-30T15:06:36.605Z,66.43
2019-05-30T15:09:20.191Z,66.71
2019-05-30T15:11:38.685Z,67.06
2019-05-30T15:14:08.750Z,66.69
2019-05-30T15:16:38.247Z,66.28
2019-05-30T15:19:08.145Z,66.09
2019-05-30T15:21:37.636Z,65.84
2019-05-30T15:24:07.717Z,66.11
2019-05-30T15:26:37.398Z,66.12
2019-05-30T15:29:07.929Z,65.98
2019-05-30T15:31:37.474Z,65.88
2019-05-30T15:34:08.392Z,66.17
2019-05-30T15:36:37.978Z,65.62
2019-05-30T15:39:08.973Z,65.48
2019-05-30T15:41:38.567Z,65.54
2019-05-30T15:44:07.965Z,65.52
2019-05-30T15:46:38.321Z,65.08
2019-05-30T15:49:08.198Z,64.32
2019-05-30T15:51:38.046Z,64.37
2019-05-30T15:54:08.741Z,63.97
2019-05-30T15:56:38.382Z,63.86
2019-05-30T15:59:07.785Z,63.87
2019-05-30T16:01:37.188Z,63.66
2019-05-30T16:04:06.748Z,63.87
2019-05-30T16:06:36.118Z,63.67
2019-05-30T16:09:07.211Z,63.77
2019-05-30T16:11:37.039Z,62.81
2019-05-30T16:14:06.461Z,63.32
2019-05-30T16:16:40.252Z,62.69
2019-05-30T16:19:17.253Z,62.66
2019-05-30T16:21:38.232Z,62.18
2019-05-30T16:24:07.621Z,63.05
2019-05-30T16:26:37.427Z,62.30
2019-05-30T16:29:06.850Z,62.40
2019-05-30T16:31:36.259Z,61.97
2019-05-30T16:34:05.716Z,62.14
2019-05-30T16:36:35.125Z,61.97
2019-05-30T16:39:06.108Z,62.12
2019-05-30T16:41:35.977Z,62.16
2019-05-30T16:44:05.559Z,62.03
2019-05-30T16:46:35.007Z,62.18
2019-05-30T16:49:04.571Z,62.32
2019-05-30T16:51:33.978Z,62.42
2019-05-30T16:54:03.413Z,62.93
2019-05-30T16:56:32.990Z,62.57
2019-05-30T16:59:02.994Z,62.34
2019-05-30T17:01:32.928Z,62.20
2019-05-30T17:04:03.088Z,62.68
2019-05-30T17:06:33.000Z,62.62
2019-05-30T17:09:03.014Z,62.74
2019-05-30T17:11:32.982Z,63.21
2019-05-30T17:14:03.003Z,63.39
2019-05-30T17:16:33.010Z,63.43
2019-05-30T17:19:03.268Z,63.45
2019-05-30T17:21:33.036Z,63.80
2019-05-30T17:24:03.092Z,63.63
2019-05-30T17:26:33.271Z,63.50
2019-05-30T17:29:03.048Z,63.28
2019-05-30T17:31:32.954Z,63.54
2019-05-30T17:34:03.207Z,63.98
2019-05-30T17:36:33.092Z,64.37
2019-05-30T17:39:03.281Z,64.61
2019-05-30T17:41:33.310Z,64.55
2019-05-30T17:44:03.037Z,64.55
2019-05-30T17:46:33.417Z,64.45
2019-05-30T17:49:03.140Z,64.53
2019-05-30T17:51:33.043Z,64.48
2019-05-30T17:54:03.099Z,64.73
2019-05-30T17:56:33.288Z,64.37
2019-05-30T17:59:03.119Z,64.48
2019-05-30T18:01:33.205Z,64.47
2019-05-30T18:04:03.183Z,64.31
2019-05-30T18:06:33.181Z,64.93
2019-05-30T18:09:04.540Z,65.13
2019-05-30T18:11:34.133Z,65.46
2019-05-30T18:14:03.736Z,65.58
2019-05-30T18:16:33.228Z,65.58
2019-05-30T18:19:03.315Z,65.91
2019-05-30T18:21:33.358Z,65.65
2019-05-30T18:24:03.199Z,65.42
2019-05-30T18:26:33.242Z,65.66
2019-05-30T18:29:03.229Z,65.90
2019-05-30T18:31:33.244Z,66.10
2019-05-30T18:34:03.518Z,66.20
2019-05-30T18:36:33.277Z,66.71
2019-05-30T18:39:07.177Z,66.71
2019-05-30T18:41:39.019Z,66.80
2019-05-30T18:44:08.432Z,67.10
2019-05-30T18:46:38.630Z,66.92
2019-05-30T18:49:08.450Z,67.00
2019-05-30T18:51:38.078Z,67.16
2019-05-30T18:54:07.545Z,67.07
2019-05-30T18:56:37.327Z,67.17
2019-05-30T18:59:06.898Z,67.37
2019-05-30T19:01:37.776Z,67.60
2019-05-30T19:04:07.694Z,68.54
2019-05-30T19:06:37.068Z,68.71
2019-05-30T19:09:07.875Z,69.06
2019-05-30T19:11:38.367Z,69.41
2019-05-30T19:14:07.980Z,68.96
2019-05-30T19:16:37.426Z,68.90
2019-05-30T19:19:07.189Z,68.89
2019-05-30T19:21:36.619Z,69.20
2019-05-30T19:24:06.180Z,69.34
2019-05-30T19:26:36.749Z,69.25
2019-05-30T19:29:06.297Z,69.57
2019-05-30T19:31:36.848Z,69.28
2019-05-30T19:34:06.493Z,68.91
2019-05-30T19:36:35.918Z,68.89
2019-05-30T19:39:06.863Z,68.93
2019-05-30T19:41:53.449Z,69.14
2019-05-30T19:44:07.966Z,68.97
2019-05-30T19:46:38.386Z,69.20
2019-05-30T19:49:08.028Z,69.67
2019-05-30T19:51:37.523Z,70.11
2019-05-30T19:54:06.938Z,70.14
2019-05-30T19:56:39.970Z,70.04
2019-05-30T19:59:07.864Z,70.02
2019-05-30T20:01:38.025Z,70.01
2019-05-30T20:04:07.666Z,69.86
2019-05-30T20:06:37.095Z,69.79
2019-05-30T20:09:08.452Z,70.07
2019-05-30T20:11:39.256Z,69.87
2019-05-30T20:14:08.813Z,69.28
2019-05-30T20:16:38.279Z,69.08
2019-05-30T20:19:07.835Z,69.40
2019-05-30T20:21:37.867Z,69.25
2019-05-30T20:24:07.467Z,69.54
2019-05-30T20:26:38.530Z,70.09
2019-05-30T20:29:08.164Z,70.43
2019-05-30T20:31:37.586Z,70.66
2019-05-30T20:34:07.285Z,70.82
2019-05-30T20:36:36.714Z,71.17
2019-05-30T20:39:07.463Z,71.14
2019-05-30T20:41:37.069Z,71.45
2019-05-30T20:44:06.601Z,71.25
2019-05-30T20:46:37.058Z,71.13
2019-05-30T20:49:06.778Z,71.43
2019-05-30T20:51:37.230Z,71.79
2019-05-30T20:54:07.530Z,71.72
2019-05-30T20:56:37.385Z,72.73
2019-05-30T20:59:10.076Z,73.01
2019-05-30T21:01:39.595Z,73.27
2019-05-30T21:04:09.281Z,73.31
2019-05-30T21:06:38.953Z,73.12
2019-05-30T21:09:27.319Z,73.38
2019-05-30T21:11:42.141Z,73.11
2019-05-30T21:14:11.826Z,73.24
2019-05-30T21:16:44.261Z,73.39
2019-05-30T21:19:14.042Z,73.18
2019-05-30T21:21:44.279Z,73.23
2019-05-30T21:24:13.745Z,73.44
2019-05-30T21:26:43.422Z,73.59
2019-05-30T21:29:12.818Z,73.68
2019-05-30T21:31:43.596Z,73.78
2019-05-30T21:34:13.274Z,73.54
2019-05-30T21:36:43.888Z,73.52
2019-05-30T21:39:13.644Z,73.58
2019-05-30T21:41:44.538Z,73.99
2019-05-30T21:44:16.043Z,74.09
2019-05-30T21:46:46.705Z,73.66
2019-05-30T21:49:16.488Z,73.66
2019-05-30T21:51:45.986Z,74.09
2019-05-30T21:54:15.408Z,74.38
2019-05-30T21:56:46.077Z,74.30
2019-05-30T21:59:15.502Z,74.34
2019-05-30T22:01:44.960Z,74.49
2019-05-30T22:04:14.558Z,74.50
2019-05-30T22:06:45.004Z,74.65
2019-05-30T22:09:14.726Z,74.55
2019-05-30T22:11:45.414Z,74.61
2019-05-30T22:14:15.169Z,74.53
2019-05-30T22:16:45.806Z,74.81
2019-05-30T22:19:15.519Z,74.98
2019-05-30T22:21:46.018Z,75.26
2019-05-30T22:24:15.648Z,74.81
2019-05-30T22:26:46.355Z,74.54
2019-05-30T22:29:15.933Z,74.37
2019-05-30T22:31:46.502Z,74.02
2019-05-30T22:34:16.121Z,74.28
2019-05-30T22:36:46.697Z,74.21
2019-05-30T22:39:16.196Z,74.34
2019-05-30T22:41:45.866Z,74.44
2019-05-30T22:44:15.242Z,74.46
2019-05-30T22:46:46.106Z,74.54
2019-05-30T22:49:15.708Z,74.43
2019-05-30T22:51:45.122Z,74.59
2019-05-30T22:54:14.526Z,74.32
2019-05-30T22:56:45.341Z,74.09
2019-05-30T22:59:14.931Z,74.13
2019-05-30T23:01:44.902Z,74.05
2019-05-30T23:04:14.416Z,74.24
2019-05-30T23:06:43.843Z,74.50
2019-05-30T23:09:13.305Z,74.85
2019-05-30T23:11:43.339Z,74.82
2019-05-30T23:14:12.745Z,74.45
2019-05-30T23:16:42.200Z,74.28
2019-05-30T23:19:11.681Z,73.96
2019-05-30T23:21:41.102Z,73.77
2019-05-30T23:24:10.555Z,74.35
2019-05-30T23:26:40.112Z,74.30
2019-05-30T23:29:09.974Z,74.16
2019-05-30T23:31:39.540Z,74.20
2019-05-30T23:34:09.248Z,74.10
2019-05-30T23:36:38.703Z,74.15
2019-05-30T23:39:08.382Z,74.36
2019-05-30T23:41:37.967Z,74.71
2019-05-30T23:44:11.451Z,74.61
2019-05-30T23:46:38.577Z,74.75
2019-05-30T23:49:08.123Z,74.93
2019-05-30T23:51:37.522Z,75.08
2019-05-30T23:54:07.002Z,74.99
2019-05-30T23:56:36.657Z,75.13
2019-05-30T23:59:06.145Z,75.28
